Latest Weather Observations for Warruwi

IDD60801

Issued at 10:01 am CST Tuesday 3 March 2015 (issued every 30 minutes, with the page automatically refreshed every 10 minutes)

About weather observations | Map of weather stations | Latest weather observations for NT | Other Formats
Station Details ID: 014401 Name: WARRUWI AIRPORT Lat: -11.65 Lon: 133.38 Height: 19.2 m
Data from the previous 72 hours. | See also: Recent months at Warruwi
Date/Time
CST
Temp
°C
App
Temp
°C
Dew
Point
Rel
Hum
%
Delta-T
°C
Wind Press
QNH
hPa
Press
MSL
hPa
Rain
since 9 am
mm
Dir
 
Spd
km/h
Gust
km/h
Spd
kts
Gust
kts
03/10:00am 27.7 33.7 25.5 88 1.6 E 4 7 2 4 1007.9 1007.7 0.6
03/09:30am 28.5 32.3 24.7 80 2.7 E 13 17 7 9 1007.9 1007.7 0.0
03/09:00am 28.0 32.1 25.2 85 2.0 E 13 17 7 9 1007.8 1007.6 0.8
03/08:30am 27.6 31.6 25.0 86 1.8 E 13 17 7 9 1007.3 1007.1 0.8
03/08:00am 27.0 32.0 25.4 91 1.1 E 9 13 5 7 1007.0 1006.8 0.8
03/07:30am 25.9 31.2 25.2 96 0.5 ESE 7 7 4 4 1006.5 1006.3 0.8
03/07:00am 25.4 31.9 25.1 98 0.2 CALM 0 0 0 0 1006.1 1005.9 0.8
03/06:30am 25.2 31.5 24.7 97 0.3 CALM 0 0 0 0 1005.7 1005.5 0.8
03/06:00am 25.1 31.4 24.8 98 0.2 CALM 0 0 0 0 1005.4 1005.2 0.8
03/05:30am 24.8 30.7 24.1 96 0.5 CALM 0 0 0 0 1005.1 1004.9 0.8
03/05:00am 24.7 30.5 24.0 96 0.5 CALM 0 0 0 0 1004.6 1004.4 0.8
03/04:30am 24.8 30.7 24.1 96 0.5 CALM 0 0 0 0 1004.7 1004.5 0.8
03/04:00am 24.9 30.7 23.9 94 0.7 CALM 0 0 0 0 1004.9 1004.7 0.8
03/03:30am 25.2 31.0 24.0 93 0.8 CALM 0 2 0 1 1004.7 1004.5 0.8
03/03:00am 25.2 30.6 23.8 92 1.0 SW 2 6 1 3 1004.9 1004.7 0.8
03/02:30am 25.4 30.5 24.0 92 1.0 SSW 4 6 2 3 1005.1 1004.9 0.8
03/02:00am 25.6 30.8 24.2 92 1.0 WSW 4 6 2 3 1005.3 1005.1 0.8
03/01:30am 26.0 30.8 24.2 90 1.2 WSW 6 9 3 5 1005.5 1005.3 0.8
03/01:00am 26.0 30.7 24.0 89 1.4 WSW 6 9 3 5 1005.6 1005.4 0.8
03/12:30am 25.8 31.2 23.8 89 1.4 WNW 2 4 1 2 1005.7 1005.5 0.8
03/12:00am 26.1 30.7 23.8 87 1.6 W 6 7 3 4 1006.1 1005.9 0.8
 
Date/Time
CST
Temp
°C
App
Temp
°C
Dew
Point
Rel
Hum
%
Delta-T
°C
Wind Press
QNH
hPa
Press
MSL
hPa
Rain
since 9 am
mm
Dir
 
Spd
km/h
Gust
km/h
Spd
kts
Gust
kts
02/11:30pm 26.3 30.3 23.8 86 1.7 W 9 11 5 6 1006.3 1006.1 0.8
02/11:00pm 26.5 30.1 23.8 85 1.9 W 11 13 6 7 1006.1 1005.9 0.8
02/10:30pm 26.6 30.2 23.7 84 2.0 W 11 13 6 7 1006.2 1006.0 0.8
02/10:00pm 26.8 30.1 23.9 84 2.0 WNW 13 19 7 10 1006.0 1005.8 0.8
02/09:30pm 27.1 31.2 24.0 83 2.1 WNW 9 17 5 9 1005.8 1005.6 0.8
02/09:00pm 27.2 31.2 23.7 81 2.4 WNW 9 13 5 7 1005.2 1005.0 0.8
02/08:30pm 27.3 31.6 23.7 81 2.5 WNW 7 11 4 6 1005.1 1004.9 0.8
02/08:00pm 27.4 31.4 23.8 81 2.5 WNW 9 15 5 8 1004.7 1004.5 0.8
02/07:30pm 27.1 31.2 24.0 83 2.1 WNW 9 15 5 8 1004.5 1004.3 0.8
02/07:00pm 27.3 31.6 24.2 83 2.1 WNW 9 15 5 8 1004.3 1004.1 0.8
02/06:30pm 27.5 31.5 23.7 80 2.6 WNW 9 13 5 7 1003.5 1003.3 0.8
02/06:00pm 27.8 31.6 24.0 80 2.6 WNW 11 17 6 9 1003.3 1003.1 0.8
02/05:30pm 28.6 32.9 24.2 77 3.1 W 9 15 5 8 1003.1 1002.9 0.8
02/05:00pm 28.5 33.1 24.1 77 3.0 WNW 7 13 4 7 1003.1 1002.9 0.8
02/04:30pm 28.4 33.4 24.8 81 2.5 WNW 7 11 4 6 1002.9 1002.8 0.8
02/04:00pm 28.4 33.1 24.0 77 3.0 NW 6 7 3 4 1002.9 1002.8 0.8
02/03:30pm 29.2 33.7 23.6 72 3.9 WSW 6 9 3 5 1003.2 1003.0 0.8
02/03:00pm 30.1 34.4 24.3 71 4.1 SW 9 17 5 9 1003.6 1003.4 0.8
02/02:30pm 30.0 34.1 24.6 73 3.8 SW 11 17 6 9 1003.9 1003.7 0.8
02/02:00pm 29.9 33.3 24.1 71 4.0 SSW 13 20 7 11 1004.3 1004.1 0.8
02/01:30pm 29.7 31.6 22.7 66 4.8 SW 17 28 9 15 1004.5 1004.3 0.8
02/01:00pm 29.3 31.2 22.8 68 4.4 SSW 17 24 9 13 1004.9 1004.7 0.8
02/12:30pm 28.4 29.5 22.4 70 4.1 SW 20 32 11 17 1005.3 1005.1 0.8
02/12:00pm 28.2 29.9 23.1 74 3.5 SW 19 28 10 15 1005.9 1005.7 0.8
02/11:30am 27.1 30.3 23.1 79 2.7 S 11 19 6 10 1006.3 1006.1 0.8
02/11:00am 27.6 31.7 24.0 81 2.5 SSW 9 13 5 7 1006.6 1006.4 0.6
02/10:30am 27.8 32.3 24.6 83 2.2 SW 9 13 5 7 1006.7 1006.5 0.6
02/10:00am 26.2 30.4 23.5 85 1.8 W 7 9 4 5 1007.2 1007.0 0.6
02/09:30am 26.8 29.5 23.5 82 2.3 WSW 15 20 8 11 1007.3 1007.1 0.0
02/09:00am 26.0 29.4 24.0 89 1.4 W 13 19 7 10 1007.2 1007.0 37.0
02/08:30am 25.4 28.3 23.8 91 1.1 WSW 15 22 8 12 1006.7 1006.5 37.0
02/08:00am 24.8 28.1 23.8 94 0.7 SW 13 22 7 12 1006.3 1006.1 37.0
02/07:30am 24.7 28.7 23.8 95 0.6 WSW 9 13 5 7 1006.3 1006.1 37.0
02/07:00am 24.6 28.9 23.6 94 0.7 SW 7 13 4 7 1006.3 1006.1 36.6
02/06:30am 24.5 28.9 23.8 96 0.5 S 7 9 4 5 1005.9 1005.7 36.4
02/06:00am 24.2 28.5 23.7 97 0.3 SSW 7 11 4 6 1004.9 1004.7 36.4
02/05:30am 23.4 28.2 22.9 97 0.3 NE 2 4 1 2 1004.6 1004.4 36.0
02/05:00am 23.3 27.6 22.6 96 0.5 N 4 7 2 4 1005.2 1005.0 35.8
02/04:30am 23.3 26.3 21.9 92 0.9 WSW 9 11 5 6 1005.4 1005.2 33.2
02/04:00am 24.1 26.2 23.1 94 0.7 WSW 17 24 9 13 1005.7 1005.5 31.2
02/03:30am 23.5 26.0 22.5 94 0.7 WSW 13 19 7 10 1006.2 1006.0 28.0
02/03:00am 24.1 25.7 22.9 93 0.8 SW 19 24 10 13 1006.6 1006.4 23.2
02/02:30am 25.0 27.5 23.8 93 0.8 WSW 17 26 9 14 1006.2 1006.0 21.8
02/02:00am 26.1 29.1 25.2 95 0.6 WSW 19 30 10 16 1006.0 1005.8 20.8
02/01:30am 26.9 30.3 26.2 96 0.5 WSW 20 32 11 17 1006.4 1006.2 18.8
02/01:00am 27.0 30.7 26.3 96 0.5 W 19 24 10 13 1006.2 1006.0 16.2
02/12:30am 27.0 29.6 26.1 95 0.6 W 24 32 13 17 1006.1 1005.9 14.0
02/12:00am 26.9 30.7 25.9 94 0.7 W 17 24 9 13 1006.7 1006.5 11.8
 
Date/Time
CST
Temp
°C
App
Temp
°C
Dew
Point
Rel
Hum
%
Delta-T
°C
Wind Press
QNH
hPa
Press
MSL
hPa
Rain
since 9 am
mm
Dir
 
Spd
km/h
Gust
km/h
Spd
kts
Gust
kts
01/11:30pm 26.8 31.0 25.4 92 1.0 W 13 17 7 9 1007.6 1007.4 9.2
01/11:00pm 27.1 31.0 25.5 91 1.1 W 15 24 8 13 1007.1 1006.9 8.0
01/10:30pm 27.8 30.8 25.2 86 1.8 W 19 24 10 13 1007.1 1006.9 7.4
01/10:00pm 28.0 30.9 25.4 86 1.8 W 20 28 11 15 1006.2 1006.0 7.4
01/09:30pm 27.6 31.6 25.6 89 1.4 WNW 15 24 8 13 1005.7 1005.5 7.4
01/09:00pm 26.5 30.5 23.8 85 1.9 NW 9 20 5 11 1005.8 1005.6 7.4
01/08:30pm 28.0 31.7 25.8 88 1.6 WNW 17 24 9 13 1006.4 1006.2 7.4
01/08:00pm 26.8 32.2 25.2 91 1.1 NW 6 9 3 5 1005.5 1005.3 7.4
01/07:30pm 25.8 29.7 24.9 95 0.6 W 13 19 7 10 1005.5 1005.3 7.4
01/07:03pm 23.0 21.1 21.3 90 1.1 WSW 33 54 18 29 1004.6 1004.4 7.2
01/07:00pm 22.8 20.5 21.3 91 1.0 WSW 35 54 19 29 1004.4 1004.2 7.0
01/06:59pm 22.7 20.4 21.2 91 1.0 WSW 35 54 19 29 1004.4 1004.2 7.0
01/06:47pm 22.1 19.4 21.3 95 0.5 SSW 37 61 20 33 1005.2 1005.0 6.8
01/06:31pm 26.5 26.3 20.6 70 3.9 SW 22 61 12 33 1006.1 1005.9 0.0
01/06:30pm 27.2 27.8 21.0 69 4.1 WSW 19 44 10 24 1006.4 1006.2 0.0
01/06:27pm 29.1 32.3 24.4 76 3.3 W 15 37 8 20 1006.1 1005.9 0.0
01/06:00pm 29.1 33.4 24.9 78 3.0 NW 11 17 6 9 1004.1 1003.9 0.0
01/05:30pm 29.4 33.8 24.5 75 3.4 NW 9 17 5 9 1003.6 1003.4 0.0
01/05:00pm 30.0 35.5 26.2 80 2.7 NNW 9 17 5 9 1003.2 1003.0 0.0
01/04:30pm 30.9 36.9 26.4 77 3.2 NW 7 13 4 7 1003.3 1003.1 0.0
01/04:00pm 31.0 36.3 25.8 74 3.7 NW 9 15 5 8 1003.5 1003.3 0.0
01/03:30pm 31.3 36.6 25.9 73 3.9 WNW 9 13 5 7 1004.4 1004.2 0.0
01/03:00pm 31.4 36.9 26.2 74 3.7 W 9 13 5 7 1004.4 1004.2 0.0
01/02:30pm 31.0 35.5 25.8 74 3.7 WNW 13 17 7 9 1004.5 1004.3 0.0
01/02:00pm 30.7 34.7 26.2 77 3.2 W 17 20 9 11 1004.9 1004.7 0.0
01/01:30pm 30.2 33.7 25.5 76 3.3 W 17 20 9 11 1005.5 1005.3 0.0
01/01:00pm 29.8 34.4 26.0 80 2.7 W 13 17 7 9 1006.2 1006.0 0.0
01/12:30pm 29.5 34.2 25.5 79 2.8 WNW 11 19 6 10 1007.0 1006.8 0.0
01/12:00pm 29.7 32.9 25.0 76 3.3 W 17 22 9 12 1007.2 1007.0 0.0
01/11:30am 29.9 33.8 25.4 77 3.2 W 15 19 8 10 1007.6 1007.4 0.0
01/11:00am 29.4 33.8 25.6 80 2.7 W 13 17 7 9 1007.8 1007.6 0.0
01/10:30am 29.0 33.2 25.4 81 2.5 W 13 20 7 11 1007.6 1007.4 0.0
01/10:00am 28.6 32.7 25.2 82 2.4 WSW 13 19 7 10 1007.6 1007.4 0.0
01/09:30am 28.5 32.3 24.7 80 2.7 WSW 13 17 7 9 1007.8 1007.6 0.0
01/09:00am 28.3 32.7 25.1 83 2.2 WSW 11 17 6 9 1007.8 1007.6 0.0
01/08:30am 27.7 32.4 24.9 85 2.0 WSW 9 13 5 7 1007.9 1007.7 0.0
01/08:00am 27.3 32.1 25.1 88 1.5 WSW 9 13 5 7 1007.7 1007.5 0.0
01/07:30am 27.1 31.7 25.3 90 1.3 WSW 11 17 6 9 1007.2 1007.0 0.0
01/07:00am 27.1 31.8 25.5 91 1.1 W 11 13 6 7 1006.8 1006.6 0.0
01/06:30am 26.9 31.1 25.3 91 1.1 W 13 17 7 9 1006.3 1006.1 0.0
01/06:00am 26.8 31.0 24.8 89 1.4 WSW 11 15 6 8 1005.8 1005.6 0.0
01/05:30am 26.9 30.6 24.5 87 1.7 W 13 19 7 10 1005.6 1005.4 0.0
01/05:00am 26.9 29.6 24.2 85 1.9 W 17 24 9 13 1005.1 1004.9 0.0
01/04:30am 26.7 29.4 24.2 86 1.7 W 17 22 9 12 1005.5 1005.3 0.0
01/04:00am 26.8 29.3 24.5 87 1.6 W 19 22 10 12 1005.4 1005.2 0.0
01/03:30am 27.3 30.8 24.2 83 2.1 W 13 19 7 10 1005.4 1005.2 0.0
01/03:00am 27.5 30.9 25.3 88 1.5 W 17 22 9 12 1006.0 1005.8 0.0
01/02:30am 28.1 32.0 25.5 86 1.8 WNW 15 22 8 12 1006.1 1005.9 0.0
01/02:00am 28.0 32.4 25.6 87 1.7 WNW 13 19 7 10 1006.3 1006.1 0.0
01/01:30am 28.1 32.5 25.7 87 1.7 WNW 13 24 7 13 1006.5 1006.3 0.0
01/01:00am 28.2 32.6 25.6 86 1.8 WNW 13 19 7 10 1006.9 1006.7 0.0
01/12:30am 28.3 31.7 25.9 87 1.7 WNW 19 24 10 13 1007.2 1007.0 0.0
01/12:00am 28.5 32.8 26.1 87 1.7 WNW 15 24 8 13 1007.4 1007.2 0.0
 
Date/Time
CST
Temp
°C
App
Temp
°C
Dew
Point
Rel
Hum
%
Delta-T
°C
Wind Press
QNH
hPa
Press
MSL
hPa
Rain
since 9 am
mm
Dir
 
Spd
km/h
Gust
km/h
Spd
kts
Gust
kts
28/11:30pm 28.4 33.7 25.8 86 1.8 NW 9 17 5 9 1007.4 1007.2 0.0
28/11:00pm 28.3 33.4 24.9 82 2.4 WNW 7 11 4 6 1007.8 1007.6 0.0
28/10:30pm 27.4 33.1 25.0 87 1.7 W 4 4 2 2 1007.6 1007.4 0.0
28/10:00pm 27.5 33.4 24.7 85 1.9 WNW 2 4 1 2 1007.3 1007.1 0.0
28/09:30pm 28.1 33.6 24.1 79 2.8 NW 2 2 1 1 1007.1 1006.9 0.0
28/09:00pm 28.6 33.3 23.9 75 3.3 SW 6 9 3 5 1006.7 1006.5 0.0
28/08:30pm 29.2 33.8 25.4 80 2.7 W 11 15 6 8 1006.9 1006.7 0.0
28/08:00pm 28.9 34.2 25.3 81 2.5 NW 7 13 4 7 1005.6 1005.4 0.0
28/07:30pm 29.8 32.4 24.0 71 4.0 W 17 24 9 13 1005.5 1005.3 0.0
28/07:00pm 29.8 33.4 24.4 73 3.8 WNW 13 20 7 11 1005.4 1005.2 0.0
28/06:30pm 29.1 34.3 25.7 82 2.4 NW 9 15 5 8 1004.8 1004.6 0.0
28/06:00pm 29.1 34.4 25.9 83 2.3 NW 9 15 5 8 1004.6 1004.4 0.0
28/05:30pm 29.5 33.7 25.3 78 3.0 NW 13 20 7 11 1004.5 1004.3 0.0
28/05:00pm 30.6 35.8 26.3 78 3.1 WNW 11 19 6 10 1004.6 1004.4 0.0
28/04:30pm 28.5 31.1 22.7 71 4.0 WNW 13 24 7 13 1004.8 1004.6 0.0
28/04:00pm 29.4 34.0 24.7 76 3.3 NW 9 20 5 11 1004.9 1004.7 0.0
28/03:30pm 30.7 35.0 25.5 74 3.7 NNW 13 22 7 12 1005.0 1004.8 0.0
28/03:00pm 30.9 35.8 26.4 77 3.2 NW 13 22 7 12 1005.3 1005.1 0.0
28/02:30pm 31.6 36.9 26.4 74 3.7 NNW 11 19 6 10 1005.6 1005.4 0.0
28/02:00pm 31.4 36.2 25.7 71 4.1 NW 11 17 6 9 1006.0 1005.8 0.0
28/01:30pm 31.9 36.0 25.2 67 4.7 WNW 13 19 7 10 1006.6 1006.4 0.0
28/01:00pm 31.6 37.3 26.4 74 3.7 WNW 9 20 5 11 1007.2 1007.0 0.0
28/12:30pm 31.0 34.9 25.4 72 4.0 WNW 15 22 8 12 1007.6 1007.4 0.0
28/12:00pm 29.9 34.8 25.2 76 3.3 WNW 9 15 5 8 1007.8 1007.6 0.0
28/11:30am 29.9 34.6 25.6 78 3.0 WNW 11 17 6 9 1007.8 1007.6 0.0
28/11:00am 29.3 33.9 25.3 79 2.8 W 11 19 6 10 1008.0 1007.8 0.0
28/10:30am 28.8 33.0 25.4 82 2.4 WNW 13 19 7 10 1008.2 1008.0 0.0

Other Formats:

Comma delimited format used in spreadsheet applications
http://www.bom.gov.au/fwo/IDD60801/IDD60801.94139.axf

JavaScript Object Notation format (JSON) in row-major order
http://www.bom.gov.au/fwo/IDD60801/IDD60801.94139.json